createdAt,value
2022-12-19T06:07:20.860Z,18.23
2022-12-19T06:09:56.720Z,17.58
2022-12-19T06:12:24.233Z,15.40
2022-12-19T06:14:51.734Z,13.73
2022-12-19T06:17:19.188Z,15.25
2022-12-19T06:19:46.415Z,14.93
2022-12-19T06:22:25.152Z,17.58
2022-12-19T06:24:57.090Z,15.52
2022-12-19T06:27:44.978Z,15.68
2022-12-19T06:30:15.201Z,15.88
2022-12-19T06:32:42.484Z,15.30
2022-12-19T06:35:28.744Z,14.55
2022-12-19T06:38:03.775Z,13.32
2022-12-19T06:41:03.873Z,13.60
2022-12-19T06:46:31.168Z,16.85
2022-12-19T06:48:58.603Z,14.95
2022-12-19T06:51:25.922Z,13.60
2022-12-19T06:53:52.874Z,13.50
2022-12-19T06:56:28.539Z,13.77
2022-12-19T06:58:56.003Z,14.23
2022-12-19T07:01:33.651Z,14.90
2022-12-19T07:04:01.247Z,15.32
2022-12-19T07:06:53.646Z,12.40
2022-12-19T07:09:22.139Z,13.05
2022-12-19T07:11:54.785Z,12.38
2022-12-19T07:14:29.643Z,11.65
2022-12-19T07:16:59.065Z,11.07
2022-12-19T07:19:27.507Z,12.70
2022-12-19T07:22:02.328Z,10.65
2022-12-19T07:24:35.941Z,13.30
2022-12-19T07:27:03.860Z,10.57
2022-12-19T07:29:31.161Z,11.82
2022-12-19T07:31:58.707Z,12.90
2022-12-19T07:34:41.099Z,13.20
2022-12-19T07:37:08.333Z,10.30
2022-12-19T07:39:42.477Z,11.67
2022-12-19T07:42:17.853Z,12.02
2022-12-19T07:44:45.207Z,11.20
2022-12-19T07:47:13.267Z,9.52
2022-12-19T07:49:54.395Z,11.68
2022-12-19T07:52:23.900Z,11.43
2022-12-19T07:54:52.874Z,10.45
2022-12-19T07:57:21.073Z,10.65
2022-12-19T07:59:48.464Z,11.45
2022-12-19T08:02:15.760Z,13.00
2022-12-19T08:04:43.349Z,10.85
2022-12-19T08:07:10.790Z,10.20
2022-12-19T08:09:38.106Z,11.02
2022-12-19T08:12:17.776Z,11.00
2022-12-19T08:14:51.584Z,11.35
2022-12-19T08:17:28.956Z,11.43
2022-12-19T08:20:08.647Z,10.68
2022-12-19T08:22:42.571Z,10.30
2022-12-19T08:25:20.563Z,11.70
2022-12-19T08:27:48.056Z,12.43
2022-12-19T08:30:15.513Z,10.95
2022-12-19T08:32:43.529Z,11.75
2022-12-19T08:35:10.946Z,11.73
2022-12-19T08:37:39.467Z,12.27
2022-12-19T08:40:08.152Z,10.52
2022-12-19T08:42:42.134Z,11.15
2022-12-19T08:45:11.021Z,11.07
2022-12-19T08:47:38.392Z,12.43
2022-12-19T08:50:05.872Z,13.05
2022-12-19T08:52:36.827Z,11.30
2022-12-19T08:55:05.927Z,12.00
2022-12-19T08:57:42.758Z,9.90
2022-12-19T09:00:10.882Z,11.10
2022-12-19T09:02:46.037Z,11.27
2022-12-19T09:06:04.371Z,10.80
2022-12-19T09:08:01.123Z,11.40
2022-12-19T09:10:28.560Z,11.73
2022-12-19T09:12:57.984Z,10.55
2022-12-19T09:15:25.515Z,9.93
2022-12-19T09:17:53.030Z,10.88
2022-12-19T09:20:26.037Z,9.63
2022-12-19T09:22:53.456Z,12.50
2022-12-19T09:28:26.004Z,10.82
2022-12-19T09:30:46.777Z,11.83
2022-12-19T09:33:13.989Z,10.25
2022-12-19T09:35:46.774Z,10.10
2022-12-19T09:38:14.147Z,10.18
2022-12-19T09:40:54.162Z,9.27
2022-12-19T09:43:41.123Z,12.10
2022-12-19T09:46:17.169Z,10.00
2022-12-19T09:48:55.184Z,10.38
2022-12-19T09:51:30.900Z,9.93
2022-12-19T09:54:18.694Z,9.85
2022-12-19T09:56:47.032Z,9.73
2022-12-19T09:59:50.740Z,10.23
2022-12-19T10:02:41.278Z,10.20
2022-12-19T10:06:51.802Z,10.05
2022-12-19T10:08:23.380Z,9.70
2022-12-19T10:12:37.902Z,10.05
2022-12-19T10:14:23.635Z,10.05
2022-12-19T10:17:25.467Z,9.73
2022-12-19T10:20:21.990Z,9.32
2022-12-19T10:23:08.733Z,9.95
2022-12-19T10:25:55.858Z,8.68
2022-12-19T10:28:26.191Z,9.00
2022-12-19T10:31:25.080Z,8.95
2022-12-19T10:34:07.377Z,7.90
2022-12-19T10:37:13.014Z,10.02
2022-12-19T10:39:31.279Z,9.02
2022-12-19T10:42:03.180Z,8.38
2022-12-19T10:44:38.401Z,8.77
2022-12-19T10:47:17.131Z,8.30
2022-12-19T10:49:51.835Z,8.48
2022-12-19T10:53:03.092Z,9.63
2022-12-19T10:55:47.156Z,7.82
2022-12-19T10:58:32.389Z,9.75
2022-12-19T11:01:05.349Z,8.25
2022-12-19T11:03:43.108Z,9.18
2022-12-19T11:06:35.320Z,7.75
2022-12-19T11:09:22.703Z,7.82
2022-12-19T11:15:27.064Z,7.25
2022-12-19T11:27:03.835Z,7.68
